sensor_id;sensor_type;location;lat;lon;timestamp;pressure;altitude;pressure_sealevel;temperature;humidity
46211;BME280;52144;48.040;-1.594;2023-03-14T00:00:23;99050.22;;;12.23;100.00
46211;BME280;52144;48.040;-1.594;2023-03-14T00:02:52;99054.38;;;12.16;100.00
46211;BME280;52144;48.040;-1.594;2023-03-14T00:05:20;99061.75;;;12.69;100.00
46211;BME280;52144;48.040;-1.594;2023-03-14T00:07:48;99062.38;;;12.38;100.00
46211;BME280;52144;48.040;-1.594;2023-03-14T00:10:16;99073.56;;;12.32;100.00
46211;BME280;52144;48.040;-1.594;2023-03-14T00:12:44;99071.84;;;12.42;100.00
46211;BME280;52144;48.040;-1.594;2023-03-14T00:15:12;99075.13;;;12.23;100.00
46211;BME280;52144;48.040;-1.594;2023-03-14T00:17:42;99078.88;;;12.43;100.00
46211;BME280;52144;48.040;-1.594;2023-03-14T00:20:11;99077.19;;;12.20;100.00
46211;BME280;52144;48.040;-1.594;2023-03-14T00:22:39;99083.25;;;12.56;100.00
46211;BME280;52144;48.040;-1.594;2023-03-14T00:25:10;99091.03;;;12.70;100.00
46211;BME280;52144;48.040;-1.594;2023-03-14T00:27:38;99094.28;;;12.51;100.00
46211;BME280;52144;48.040;-1.594;2023-03-14T00:30:07;99091.25;;;12.33;100.00
46211;BME280;52144;48.040;-1.594;2023-03-14T00:32:35;99103.63;;;12.45;100.00
46211;BME280;52144;48.040;-1.594;2023-03-14T00:35:05;99108.97;;;12.45;100.00
46211;BME280;52144;48.040;-1.594;2023-03-14T00:37:33;99123.47;;;12.54;100.00
46211;BME280;52144;48.040;-1.594;2023-03-14T00:40:01;99121.13;;;12.27;100.00
46211;BME280;52144;48.040;-1.594;2023-03-14T00:42:32;99138.50;;;12.44;100.00
46211;BME280;52144;48.040;-1.594;2023-03-14T00:45:00;99140.03;;;12.13;100.00
46211;BME280;52144;48.040;-1.594;2023-03-14T00:47:27;99144.16;;;12.06;100.00
46211;BME280;52144;48.040;-1.594;2023-03-14T00:49:55;99148.22;;;12.45;100.00
46211;BME280;52144;48.040;-1.594;2023-03-14T00:52:25;99146.34;;;12.12;100.00
46211;BME280;52144;48.040;-1.594;2023-03-14T00:54:52;99167.84;;;11.86;100.00
46211;BME280;52144;48.040;-1.594;2023-03-14T00:57:20;99171.13;;;12.14;100.00
46211;BME280;52144;48.040;-1.594;2023-03-14T00:59:48;99183.13;;;11.84;100.00
46211;BME280;52144;48.040;-1.594;2023-03-14T01:02:16;99182.56;;;11.68;100.00
46211;BME280;52144;48.040;-1.594;2023-03-14T01:04:44;99196.34;;;11.85;100.00
46211;BME280;52144;48.040;-1.594;2023-03-14T01:07:11;99220.19;;;11.89;100.00
46211;BME280;52144;48.040;-1.594;2023-03-14T01:09:40;99239.06;;;11.61;100.00
46211;BME280;52144;48.040;-1.594;2023-03-14T01:12:08;99267.91;;;11.56;100.00
46211;BME280;52144;48.040;-1.594;2023-03-14T01:14:36;99281.28;;;11.31;100.00
46211;BME280;52144;48.040;-1.594;2023-03-14T01:17:04;99293.69;;;11.32;100.00
46211;BME280;52144;48.040;-1.594;2023-03-14T01:19:31;99299.00;;;11.32;100.00
46211;BME280;52144;48.040;-1.594;2023-03-14T01:21:59;99319.50;;;11.18;100.00
46211;BME280;52144;48.040;-1.594;2023-03-14T01:24:27;99320.84;;;11.37;100.00
46211;BME280;52144;48.040;-1.594;2023-03-14T01:26:56;99336.34;;;11.32;100.00
46211;BME280;52144;48.040;-1.594;2023-03-14T01:29:24;99341.69;;;11.06;100.00
46211;BME280;52144;48.040;-1.594;2023-03-14T01:31:51;99356.28;;;11.13;100.00
46211;BME280;52144;48.040;-1.594;2023-03-14T01:34:19;99363.53;;;11.24;100.00
46211;BME280;52144;48.040;-1.594;2023-03-14T01:36:47;99376.22;;;11.20;100.00
46211;BME280;52144;48.040;-1.594;2023-03-14T01:39:15;99390.75;;;11.03;100.00
46211;BME280;52144;48.040;-1.594;2023-03-14T01:41:43;99397.66;;;11.06;100.00
46211;BME280;52144;48.040;-1.594;2023-03-14T01:44:12;99398.38;;;10.82;100.00
46211;BME280;52144;48.040;-1.594;2023-03-14T01:46:41;99420.66;;;10.81;100.00
46211;BME280;52144;48.040;-1.594;2023-03-14T01:49:13;99416.03;;;11.23;100.00
46211;BME280;52144;48.040;-1.594;2023-03-14T01:51:45;99424.00;;;10.98;100.00
46211;BME280;52144;48.040;-1.594;2023-03-14T01:54:18;99429.31;;;10.98;100.00
46211;BME280;52144;48.040;-1.594;2023-03-14T01:56:51;99424.84;;;11.11;100.00
46211;BME280;52144;48.040;-1.594;2023-03-14T01:59:22;99447.38;;;10.67;100.00
46211;BME280;52144;48.040;-1.594;2023-03-14T02:01:51;99451.06;;;10.92;100.00
46211;BME280;52144;48.040;-1.594;2023-03-14T02:04:19;99446.22;;;10.71;100.00
46211;BME280;52144;48.040;-1.594;2023-03-14T02:06:51;99475.13;;;10.77;100.00
46211;BME280;52144;48.040;-1.594;2023-03-14T02:09:20;99473.09;;;10.81;100.00
46211;BME280;52144;48.040;-1.594;2023-03-14T02:11:49;99493.03;;;10.88;100.00
46211;BME280;52144;48.040;-1.594;2023-03-14T02:14:26;99504.38;;;10.64;100.00
46211;BME280;52144;48.040;-1.594;2023-03-14T02:16:55;99505.59;;;10.73;100.00
46211;BME280;52144;48.040;-1.594;2023-03-14T02:19:34;99515.78;;;10.67;100.00
46211;BME280;52144;48.040;-1.594;2023-03-14T02:22:07;99528.91;;;10.70;100.00
46211;BME280;52144;48.040;-1.594;2023-03-14T02:24:43;99520.00;;;10.83;100.00
46211;BME280;52144;48.040;-1.594;2023-03-14T02:27:16;99541.78;;;10.63;100.00
46211;BME280;52144;48.040;-1.594;2023-03-14T02:29:49;99553.00;;;10.54;100.00
46211;BME280;52144;48.040;-1.594;2023-03-14T02:32:18;99550.38;;;10.39;100.00
46211;BME280;52144;48.040;-1.594;2023-03-14T02:34:49;99553.00;;;10.54;100.00
46211;BME280;52144;48.040;-1.594;2023-03-14T02:37:21;99572.16;;;10.88;97.53
46211;BME280;52144;48.040;-1.594;2023-03-14T02:39:49;99571.63;;;10.68;97.28
46211;BME280;52144;48.040;-1.594;2023-03-14T02:42:19;99573.53;;;10.66;97.08
46211;BME280;52144;48.040;-1.594;2023-03-14T02:44:51;99581.75;;;10.90;96.28
46211;BME280;52144;48.040;-1.594;2023-03-14T02:47:22;99589.31;;;10.69;98.11
46211;BME280;52144;48.040;-1.594;2023-03-14T02:49:53;99591.97;;;10.83;96.78
46211;BME280;52144;48.040;-1.594;2023-03-14T02:52:25;99610.38;;;10.59;100.00
46211;BME280;52144;48.040;-1.594;2023-03-14T02:54:53;99621.00;;;10.74;100.00
46211;BME280;52144;48.040;-1.594;2023-03-14T02:57:23;99642.72;;;10.95;100.00
46211;BME280;52144;48.040;-1.594;2023-03-14T02:59:50;99644.38;;;10.25;100.00
46211;BME280;52144;48.040;-1.594;2023-03-14T03:02:18;99636.13;;;10.01;100.00
46211;BME280;52144;48.040;-1.594;2023-03-14T03:04:46;99639.97;;;9.81;100.00
46211;BME280;52144;48.040;-1.594;2023-03-14T03:07:13;99647.50;;;9.89;100.00
46211;BME280;52144;48.040;-1.594;2023-03-14T03:09:41;99665.09;;;9.61;100.00
46211;BME280;52144;48.040;-1.594;2023-03-14T03:12:09;99668.03;;;9.57;100.00
46211;BME280;52144;48.040;-1.594;2023-03-14T03:14:38;99670.13;;;9.66;100.00
46211;BME280;52144;48.040;-1.594;2023-03-14T03:17:06;99670.09;;;9.52;100.00
46211;BME280;52144;48.040;-1.594;2023-03-14T03:19:34;99678.84;;;9.54;100.00
46211;BME280;52144;48.040;-1.594;2023-03-14T03:22:02;99690.31;;;9.54;100.00
46211;BME280;52144;48.040;-1.594;2023-03-14T03:24:30;99700.06;;;9.70;100.00
46211;BME280;52144;48.040;-1.594;2023-03-14T03:26:58;99704.00;;;9.78;100.00
46211;BME280;52144;48.040;-1.594;2023-03-14T03:29:25;99709.00;;;9.69;100.00
46211;BME280;52144;48.040;-1.594;2023-03-14T03:31:54;99718.53;;;10.17;100.00
46211;BME280;52144;48.040;-1.594;2023-03-14T03:34:22;99720.81;;;9.79;100.00
46211;BME280;52144;48.040;-1.594;2023-03-14T03:36:50;99734.59;;;10.01;100.00
46211;BME280;52144;48.040;-1.594;2023-03-14T03:39:18;99745.84;;;10.21;100.00
46211;BME280;52144;48.040;-1.594;2023-03-14T03:41:46;99748.81;;;10.61;100.00
46211;BME280;52144;48.040;-1.594;2023-03-14T03:44:13;99756.22;;;10.70;100.00
46211;BME280;52144;48.040;-1.594;2023-03-14T03:46:41;99752.41;;;10.60;100.00
46211;BME280;52144;48.040;-1.594;2023-03-14T03:49:10;99770.06;;;10.32;100.00
46211;BME280;52144;48.040;-1.594;2023-03-14T03:51:39;99769.03;;;10.49;100.00
46211;BME280;52144;48.040;-1.594;2023-03-14T03:54:07;99772.81;;;10.31;100.00
46211;BME280;52144;48.040;-1.594;2023-03-14T03:56:35;99778.72;;;10.36;100.00
46211;BME280;52144;48.040;-1.594;2023-03-14T03:59:03;99778.09;;;10.00;100.00
46211;BME280;52144;48.040;-1.594;2023-03-14T04:01:30;99780.31;;;10.08;100.00
46211;BME280;52144;48.040;-1.594;2023-03-14T04:03:58;99787.59;;;9.74;100.00
46211;BME280;52144;48.040;-1.594;2023-03-14T04:06:28;99781.13;;;9.94;100.00
46211;BME280;52144;48.040;-1.594;2023-03-14T04:08:56;99783.88;;;9.77;100.00
46211;BME280;52144;48.040;-1.594;2023-03-14T04:11:23;99799.28;;;9.72;100.00
46211;BME280;52144;48.040;-1.594;2023-03-14T04:13:51;99804.06;;;9.81;100.00
46211;BME280;52144;48.040;-1.594;2023-03-14T04:16:21;99807.25;;;9.72;99.50
46211;BME280;52144;48.040;-1.594;2023-03-14T04:18:50;99818.47;;;9.77;98.89
46211;BME280;52144;48.040;-1.594;2023-03-14T04:21:18;99817.28;;;9.67;99.26
46211;BME280;52144;48.040;-1.594;2023-03-14T04:23:47;99817.81;;;9.89;95.66
46211;BME280;52144;48.040;-1.594;2023-03-14T04:26:15;99812.31;;;9.60;95.83
46211;BME280;52144;48.040;-1.594;2023-03-14T04:28:43;99820.22;;;9.78;94.93
46211;BME280;52144;48.040;-1.594;2023-03-14T04:31:13;99846.94;;;9.27;93.72
46211;BME280;52144;48.040;-1.594;2023-03-14T04:33:41;99866.38;;;9.45;94.31
46211;BME280;52144;48.040;-1.594;2023-03-14T04:36:11;99866.91;;;9.68;94.01
46211;BME280;52144;48.040;-1.594;2023-03-14T04:38:40;99872.13;;;9.53;93.57
46211;BME280;52144;48.040;-1.594;2023-03-14T04:41:09;99877.03;;;9.61;92.21
46211;BME280;52144;48.040;-1.594;2023-03-14T04:43:37;99891.78;;;9.51;93.94
46211;BME280;52144;48.040;-1.594;2023-03-14T04:46:05;99887.13;;;9.54;94.48
46211;BME280;52144;48.040;-1.594;2023-03-14T04:48:33;99907.53;;;9.54;94.75
46211;BME280;52144;48.040;-1.594;2023-03-14T04:51:01;99904.84;;;9.38;96.14
46211;BME280;52144;48.040;-1.594;2023-03-14T04:53:29;99914.22;;;9.45;94.79
46211;BME280;52144;48.040;-1.594;2023-03-14T04:55:58;99916.78;;;9.31;94.30
46211;BME280;52144;48.040;-1.594;2023-03-14T04:58:27;99921.69;;;9.54;94.52
46211;BME280;52144;48.040;-1.594;2023-03-14T05:00:55;99937.13;;;9.14;95.10
46211;BME280;52144;48.040;-1.594;2023-03-14T05:03:23;99939.28;;;9.41;94.81
46211;BME280;52144;48.040;-1.594;2023-03-14T05:05:51;99950.84;;;9.40;95.38
46211;BME280;52144;48.040;-1.594;2023-03-14T05:08:19;99947.06;;;9.11;96.09
46211;BME280;52144;48.040;-1.594;2023-03-14T05:10:52;99952.44;;;9.27;94.12
46211;BME280;52144;48.040;-1.594;2023-03-14T05:13:20;99963.31;;;9.04;96.57
46211;BME280;52144;48.040;-1.594;2023-03-14T05:15:49;99967.00;;;9.02;95.77
46211;BME280;52144;48.040;-1.594;2023-03-14T05:18:18;99976.75;;;8.84;95.97
46211;BME280;52144;48.040;-1.594;2023-03-14T05:20:46;99977.94;;;9.13;95.67
46211;BME280;52144;48.040;-1.594;2023-03-14T05:23:13;99974.97;;;9.02;95.68
46211;BME280;52144;48.040;-1.594;2023-03-14T05:25:42;99986.19;;;8.55;95.63
46211;BME280;52144;48.040;-1.594;2023-03-14T05:28:10;100000.34;;;8.73;94.79
46211;BME280;52144;48.040;-1.594;2023-03-14T05:30:38;100006.38;;;8.76;94.10
46211;BME280;52144;48.040;-1.594;2023-03-14T05:33:07;100009.72;;;8.80;94.78
46211;BME280;52144;48.040;-1.594;2023-03-14T05:35:35;100017.00;;;8.76;94.94
46211;BME280;52144;48.040;-1.594;2023-03-14T05:38:03;100012.75;;;8.55;96.14
46211;BME280;52144;48.040;-1.594;2023-03-14T05:40:31;100018.25;;;8.31;97.02
46211;BME280;52144;48.040;-1.594;2023-03-14T05:42:58;100022.91;;;8.64;95.44
46211;BME280;52144;48.040;-1.594;2023-03-14T05:45:26;100036.59;;;8.74;94.86
46211;BME280;52144;48.040;-1.594;2023-03-14T05:47:54;100043.13;;;8.67;94.83
46211;BME280;52144;48.040;-1.594;2023-03-14T05:50:23;100050.06;;;8.52;95.34
46211;BME280;52144;48.040;-1.594;2023-03-14T05:52:51;100054.34;;;8.73;94.28
46211;BME280;52144;48.040;-1.594;2023-03-14T05:55:19;100063.66;;;8.25;95.24
46211;BME280;52144;48.040;-1.594;2023-03-14T05:57:46;100066.97;;;8.30;93.69
46211;BME280;52144;48.040;-1.594;2023-03-14T06:00:15;100074.00;;;8.31;94.67
46211;BME280;52144;48.040;-1.594;2023-03-14T06:02:42;100077.44;;;8.33;93.91
46211;BME280;52144;48.040;-1.594;2023-03-14T06:05:10;100074.19;;;8.47;92.96
46211;BME280;52144;48.040;-1.594;2023-03-14T06:07:40;100089.78;;;8.72;92.40
46211;BME280;52144;48.040;-1.594;2023-03-14T06:10:08;100099.16;;;8.43;93.78
46211;BME280;52144;48.040;-1.594;2023-03-14T06:12:36;100108.47;;;8.52;93.40
46211;BME280;52144;48.040;-1.594;2023-03-14T06:15:05;100111.47;;;8.44;94.13
46211;BME280;52144;48.040;-1.594;2023-03-14T06:17:33;100101.88;;;8.41;94.91
46211;BME280;52144;48.040;-1.594;2023-03-14T06:20:01;100116.94;;;8.60;92.44
46211;BME280;52144;48.040;-1.594;2023-03-14T06:22:29;100119.16;;;8.50;91.71
46211;BME280;52144;48.040;-1.594;2023-03-14T06:24:58;100121.25;;;8.62;91.47
46211;BME280;52144;48.040;-1.594;2023-03-14T06:27:26;100128.38;;;8.22;92.41
46211;BME280;52144;48.040;-1.594;2023-03-14T06:29:53;100142.75;;;8.37;91.52
46211;BME280;52144;48.040;-1.594;2023-03-14T06:32:21;100127.84;;;8.54;91.22
46211;BME280;52144;48.040;-1.594;2023-03-14T06:34:49;100141.72;;;8.21;90.97
46211;BME280;52144;48.040;-1.594;2023-03-14T06:37:17;100139.63;;;8.28;90.94
46211;BME280;52144;48.040;-1.594;2023-03-14T06:39:46;100159.22;;;8.46;90.89
46211;BME280;52144;48.040;-1.594;2023-03-14T06:42:15;100163.16;;;8.56;89.69
46211;BME280;52144;48.040;-1.594;2023-03-14T06:44:43;100175.44;;;8.19;90.53
46211;BME280;52144;48.040;-1.594;2023-03-14T06:47:11;100180.72;;;8.19;89.93
46211;BME280;52144;48.040;-1.594;2023-03-14T06:49:38;100179.38;;;8.50;89.15
46211;BME280;52144;48.040;-1.594;2023-03-14T06:52:06;100190.41;;;8.20;90.00
46211;BME280;52144;48.040;-1.594;2023-03-14T06:54:34;100210.06;;;8.57;88.68
46211;BME280;52144;48.040;-1.594;2023-03-14T06:57:02;100202.50;;;8.27;88.18
46211;BME280;52144;48.040;-1.594;2023-03-14T06:59:31;100206.94;;;8.66;88.37
46211;BME280;52144;48.040;-1.594;2023-03-14T07:01:59;100213.22;;;8.24;88.38
46211;BME280;52144;48.040;-1.594;2023-03-14T07:04:26;100224.47;;;8.70;87.83
46211;BME280;52144;48.040;-1.594;2023-03-14T07:06:54;100228.19;;;8.66;87.93
46211;BME280;52144;48.040;-1.594;2023-03-14T07:09:22;100231.81;;;9.03;86.72
46211;BME280;52144;48.040;-1.594;2023-03-14T07:11:50;100251.09;;;8.69;87.07
46211;BME280;52144;48.040;-1.594;2023-03-14T07:14:17;100251.06;;;8.50;88.56
46211;BME280;52144;48.040;-1.594;2023-03-14T07:16:48;100255.91;;;8.19;90.09
46211;BME280;52144;48.040;-1.594;2023-03-14T07:19:16;100264.41;;;8.28;89.51
46211;BME280;52144;48.040;-1.594;2023-03-14T07:21:44;100272.09;;;8.34;89.79
46211;BME280;52144;48.040;-1.594;2023-03-14T07:24:11;100276.81;;;8.07;90.80
46211;BME280;52144;48.040;-1.594;2023-03-14T07:26:39;100282.25;;;8.44;89.41
46211;BME280;52144;48.040;-1.594;2023-03-14T07:29:07;100285.94;;;8.40;89.21
46211;BME280;52144;48.040;-1.594;2023-03-14T07:31:35;100295.69;;;8.41;90.22
46211;BME280;52144;48.040;-1.594;2023-03-14T07:34:04;100303.84;;;8.57;90.13
46211;BME280;52144;48.040;-1.594;2023-03-14T07:36:32;100297.63;;;8.36;90.06
46211;BME280;52144;48.040;-1.594;2023-03-14T07:39:00;100302.47;;;8.88;88.93
46211;BME280;52144;48.040;-1.594;2023-03-14T07:41:28;100307.94;;;8.64;89.46
46211;BME280;52144;48.040;-1.594;2023-03-14T07:43:55;100308.44;;;8.54;89.81
46211;BME280;52144;48.040;-1.594;2023-03-14T07:46:23;100312.53;;;8.81;89.02
46211;BME280;52144;48.040;-1.594;2023-03-14T07:48:51;100323.25;;;8.99;88.19
46211;BME280;52144;48.040;-1.594;2023-03-14T07:51:20;100327.75;;;8.97;87.48
46211;BME280;52144;48.040;-1.594;2023-03-14T07:53:48;100324.41;;;8.52;88.92
46211;BME280;52144;48.040;-1.594;2023-03-14T07:56:16;100342.28;;;9.09;86.82
46211;BME280;52144;48.040;-1.594;2023-03-14T07:58:43;100355.63;;;8.88;87.77
46211;BME280;52144;48.040;-1.594;2023-03-14T08:01:11;100356.59;;;9.06;86.50
46211;BME280;52144;48.040;-1.594;2023-03-14T08:03:39;100363.91;;;9.01;86.24
46211;BME280;52144;48.040;-1.594;2023-03-14T08:06:07;100364.78;;;8.81;87.54
46211;BME280;52144;48.040;-1.594;2023-03-14T08:08:36;100365.81;;;8.97;87.04
46211;BME280;52144;48.040;-1.594;2023-03-14T08:11:06;100368.66;;;9.13;85.62
46211;BME280;52144;48.040;-1.594;2023-03-14T08:13:36;100381.34;;;8.88;87.10
46211;BME280;52144;48.040;-1.594;2023-03-14T08:16:05;100381.81;;;9.16;85.77
46211;BME280;52144;48.040;-1.594;2023-03-14T08:18:32;100387.03;;;8.99;87.29
46211;BME280;52144;48.040;-1.594;2023-03-14T08:21:02;100395.91;;;9.18;86.08
46211;BME280;52144;48.040;-1.594;2023-03-14T08:23:30;100401.16;;;9.20;86.17
46211;BME280;52144;48.040;-1.594;2023-03-14T08:25:59;100392.19;;;9.22;86.34
46211;BME280;52144;48.040;-1.594;2023-03-14T08:28:27;100403.09;;;9.54;84.41
46211;BME280;52144;48.040;-1.594;2023-03-14T08:30:57;100419.38;;;9.67;85.66
46211;BME280;52144;48.040;-1.594;2023-03-14T08:33:25;100414.31;;;9.42;84.72
46211;BME280;52144;48.040;-1.594;2023-03-14T08:35:53;100415.03;;;9.64;84.13
46211;BME280;52144;48.040;-1.594;2023-03-14T08:38:21;100443.22;;;9.50;81.62
46211;BME280;52144;48.040;-1.594;2023-03-14T08:40:55;100429.00;;;9.70;81.78
46211;BME280;52144;48.040;-1.594;2023-03-14T08:43:26;100441.06;;;10.15;81.50
46211;BME280;52144;48.040;-1.594;2023-03-14T08:45:57;100433.75;;;9.82;81.23
46211;BME280;52144;48.040;-1.594;2023-03-14T08:48:25;100437.91;;;9.50;81.19
46211;BME280;52144;48.040;-1.594;2023-03-14T08:50:53;100449.28;;;9.72;80.76
46211;BME280;52144;48.040;-1.594;2023-03-14T08:53:21;100448.94;;;9.80;81.06
46211;BME280;52144;48.040;-1.594;2023-03-14T08:55:52;100449.22;;;9.74;81.93
46211;BME280;52144;48.040;-1.594;2023-03-14T08:58:20;100452.84;;;9.52;82.10
46211;BME280;52144;48.040;-1.594;2023-03-14T09:00:50;100468.19;;;9.47;82.83
46211;BME280;52144;48.040;-1.594;2023-03-14T09:03:18;100462.88;;;9.27;82.51
46211;BME280;52144;48.040;-1.594;2023-03-14T09:05:46;100469.47;;;9.38;83.70
46211;BME280;52144;48.040;-1.594;2023-03-14T09:08:14;100475.09;;;9.51;82.25
46211;BME280;52144;48.040;-1.594;2023-03-14T09:10:41;100482.72;;;9.78;83.37
46211;BME280;52144;48.040;-1.594;2023-03-14T09:13:09;100479.66;;;9.87;81.26
46211;BME280;52144;48.040;-1.594;2023-03-14T09:15:37;100471.28;;;9.76;81.68
46211;BME280;52144;48.040;-1.594;2023-03-14T09:18:06;100480.56;;;9.67;81.10
46211;BME280;52144;48.040;-1.594;2023-03-14T09:20:35;100489.97;;;9.74;81.83
46211;BME280;52144;48.040;-1.594;2023-03-14T09:23:02;100483.53;;;10.18;81.63
46211;BME280;52144;48.040;-1.594;2023-03-14T09:25:30;100483.22;;;10.05;82.12
46211;BME280;52144;48.040;-1.594;2023-03-14T09:27:58;100498.75;;;9.76;82.53
46211;BME280;52144;48.040;-1.594;2023-03-14T09:30:26;100500.34;;;10.37;80.82
46211;BME280;52144;48.040;-1.594;2023-03-14T09:32:53;100503.81;;;10.20;79.76
46211;BME280;52144;48.040;-1.594;2023-03-14T09:35:23;100519.84;;;10.19;78.62
46211;BME280;52144;48.040;-1.594;2023-03-14T09:37:51;100515.97;;;10.07;80.36
46211;BME280;52144;48.040;-1.594;2023-03-14T09:40:19;100524.16;;;10.59;77.09
46211;BME280;52144;48.040;-1.594;2023-03-14T09:42:48;100529.00;;;10.88;76.79
46211;BME280;52144;48.040;-1.594;2023-03-14T09:45:23;100524.59;;;11.04;77.91
46211;BME280;52144;48.040;-1.594;2023-03-14T09:47:53;100544.63;;;10.76;78.01
46211;BME280;52144;48.040;-1.594;2023-03-14T09:50:31;100523.97;;;10.26;78.39
46211;BME280;52144;48.040;-1.594;2023-03-14T09:53:04;100544.91;;;10.15;76.12
46211;BME280;52144;48.040;-1.594;2023-03-14T09:55:32;100547.28;;;10.21;76.71
46211;BME280;52144;48.040;-1.594;2023-03-14T09:58:04;100545.28;;;10.26;76.06
46211;BME280;52144;48.040;-1.594;2023-03-14T10:00:36;100551.16;;;10.71;75.74
46211;BME280;52144;48.040;-1.594;2023-03-14T10:03:21;100571.13;;;11.16;73.84
46211;BME280;52144;48.040;-1.594;2023-03-14T10:05:50;100559.75;;;11.30;74.03
46211;BME280;52144;48.040;-1.594;2023-03-14T10:08:18;100579.91;;;11.86;74.40
46211;BME280;52144;48.040;-1.594;2023-03-14T10:10:47;100572.28;;;11.10;72.26
46211;BME280;52144;48.040;-1.594;2023-03-14T10:13:17;100577.31;;;11.51;71.73
46211;BME280;52144;48.040;-1.594;2023-03-14T10:15:52;100584.88;;;11.26;73.41
46211;BME280;52144;48.040;-1.594;2023-03-14T10:18:22;100585.31;;;11.16;74.99
46211;BME280;52144;48.040;-1.594;2023-03-14T10:21:04;100590.69;;;10.61;74.51
46211;BME280;52144;48.040;-1.594;2023-03-14T10:23:34;100592.94;;;10.51;74.08
46211;BME280;52144;48.040;-1.594;2023-03-14T10:26:08;100594.28;;;10.60;76.33
46211;BME280;52144;48.040;-1.594;2023-03-14T10:28:39;100591.41;;;10.46;81.42
46211;BME280;52144;48.040;-1.594;2023-03-14T10:31:07;100604.81;;;10.44;79.92
46211;BME280;52144;48.040;-1.594;2023-03-14T10:33:37;100605.97;;;10.38;83.53
46211;BME280;52144;48.040;-1.594;2023-03-14T10:36:20;100621.81;;;10.02;89.66
46211;BME280;52144;48.040;-1.594;2023-03-14T10:38:49;100619.91;;;9.85;92.70
46211;BME280;52144;48.040;-1.594;2023-03-14T10:41:20;100625.41;;;10.40;92.39
46211;BME280;52144;48.040;-1.594;2023-03-14T10:43:54;100615.31;;;10.28;89.94
46211;BME280;52144;48.040;-1.594;2023-03-14T10:46:30;100620.31;;;10.55;87.53
46211;BME280;52144;48.040;-1.594;2023-03-14T10:48:59;100618.84;;;11.03;85.97
46211;BME280;52144;48.040;-1.594;2023-03-14T10:51:33;100625.66;;;11.28;81.78
46211;BME280;52144;48.040;-1.594;2023-03-14T10:54:02;100626.66;;;11.25;82.25
46211;BME280;52144;48.040;-1.594;2023-03-14T10:56:34;100625.97;;;11.91;77.61
46211;BME280;52144;48.040;-1.594;2023-03-14T10:59:03;100624.63;;;11.82;74.68
46211;BME280;52144;48.040;-1.594;2023-03-14T11:01:39;100620.16;;;11.65;71.55
46211;BME280;52144;48.040;-1.594;2023-03-14T11:04:31;100619.53;;;11.43;72.92
46211;BME280;52144;48.040;-1.594;2023-03-14T11:07:08;100620.28;;;11.80;69.66
46211;BME280;52144;48.040;-1.594;2023-03-14T11:09:40;100622.59;;;12.21;67.56
46211;BME280;52144;48.040;-1.594;2023-03-14T11:12:25;100626.75;;;12.27;67.19
46211;BME280;52144;48.040;-1.594;2023-03-14T11:15:01;100628.72;;;11.55;67.38
46211;BME280;52144;48.040;-1.594;2023-03-14T11:17:34;100617.69;;;11.78;66.28
46211;BME280;52144;48.040;-1.594;2023-03-14T11:20:17;100631.94;;;11.79;64.40
46211;BME280;52144;48.040;-1.594;2023-03-14T11:22:50;100616.00;;;11.95;63.42
46211;BME280;52144;48.040;-1.594;2023-03-14T11:25:27;100617.09;;;12.24;64.17
46211;BME280;52144;48.040;-1.594;2023-03-14T11:28:04;100613.06;;;11.99;63.38
46211;BME280;52144;48.040;-1.594;2023-03-14T11:30:39;100617.06;;;12.08;63.79
46211;BME280;52144;48.040;-1.594;2023-03-14T11:33:14;100604.28;;;11.97;62.25
46211;BME280;52144;48.040;-1.594;2023-03-14T11:35:47;100620.75;;;11.88;64.83
46211;BME280;52144;48.040;-1.594;2023-03-14T11:38:29;100620.88;;;12.20;62.46
46211;BME280;52144;48.040;-1.594;2023-03-14T11:40:58;100616.25;;;12.39;61.36
46211;BME280;52144;48.040;-1.594;2023-03-14T11:43:29;100620.69;;;13.18;59.59
46211;BME280;52144;48.040;-1.594;2023-03-14T11:46:03;100605.25;;;13.39;57.35
46211;BME280;52144;48.040;-1.594;2023-03-14T11:48:39;100615.22;;;12.90;58.01
46211;BME280;52144;48.040;-1.594;2023-03-14T11:51:14;100614.91;;;12.64;58.75
46211;BME280;52144;48.040;-1.594;2023-03-14T11:53:55;100627.91;;;12.54;59.87
46211;BME280;52144;48.040;-1.594;2023-03-14T11:56:29;100631.94;;;12.45;60.16
46211;BME280;52144;48.040;-1.594;2023-03-14T11:59:02;100638.84;;;12.65;57.94
46211;BME280;52144;48.040;-1.594;2023-03-14T12:01:44;100631.44;;;12.71;55.96
46211;BME280;52144;48.040;-1.594;2023-03-14T12:04:18;100649.47;;;12.67;56.84
46211;BME280;52144;48.040;-1.594;2023-03-14T12:06:49;100644.81;;;12.55;56.93
46211;BME280;52144;48.040;-1.594;2023-03-14T12:09:20;100636.25;;;12.96;55.10
46211;BME280;52144;48.040;-1.594;2023-03-14T12:11:50;100651.59;;;13.08;54.63
46211;BME280;52144;48.040;-1.594;2023-03-14T12:14:25;100649.47;;;12.99;53.81
46211;BME280;52144;48.040;-1.594;2023-03-14T12:16:56;100652.84;;;13.79;53.10
46211;BME280;52144;48.040;-1.594;2023-03-14T12:19:28;100661.09;;;13.14;54.79
46211;BME280;52144;48.040;-1.594;2023-03-14T12:22:00;100652.94;;;13.47;54.94
46211;BME280;52144;48.040;-1.594;2023-03-14T12:24:32;100655.91;;;13.27;54.27
46211;BME280;52144;48.040;-1.594;2023-03-14T12:27:02;100653.56;;;13.20;52.86
46211;BME280;52144;48.040;-1.594;2023-03-14T12:29:31;100650.69;;;14.00;53.45
46211;BME280;52144;48.040;-1.594;2023-03-14T12:32:21;100634.28;;;13.76;52.23
46211;BME280;52144;48.040;-1.594;2023-03-14T12:34:50;100639.47;;;13.49;52.99
46211;BME280;52144;48.040;-1.594;2023-03-14T12:37:30;100642.78;;;13.38;52.77
46211;BME280;52144;48.040;-1.594;2023-03-14T12:40:13;100659.72;;;13.69;52.66
46211;BME280;52144;48.040;-1.594;2023-03-14T12:42:53;100656.66;;;13.75;52.01
46211;BME280;52144;48.040;-1.594;2023-03-14T12:45:26;100663.41;;;13.82;52.07
46211;BME280;52144;48.040;-1.594;2023-03-14T12:48:10;100658.53;;;13.89;50.94
46211;BME280;52144;48.040;-1.594;2023-03-14T12:50:42;100672.63;;;13.62;51.54
46211;BME280;52144;48.040;-1.594;2023-03-14T12:56:21;100663.81;;;14.04;52.59
46211;BME280;52144;48.040;-1.594;2023-03-14T13:01:47;100665.09;;;13.83;51.58
46211;BME280;52144;48.040;-1.594;2023-03-14T13:04:16;100651.44;;;14.16;50.63